Time;durP1;ratioP1;P1;durP2;ratioP2;P2;SDS_P1;SDS_P2;PMS_P1;PMS_P2;Temp;Humidity;BMP_temperature;BMP_pressure;BME280_temperature;BME280_humidity;BME280_pressure;Samples;Min_cycle;Max_cycle;Signal;HPM_P1;HPM_P2
2022/11/16 00:01:16;;;;;;;15.63;9.75;;;11.50;99.90;;;;;;4963454;28;20142;-59
2022/11/16 00:03:42;;;;;;;22.85;10.80;;;11.50;99.90;;;;;;4975951;28;20026;-60
2022/11/16 00:06:08;;;;;;;22.70;11.18;;;11.40;99.90;;;;;;4967451;28;20037;-61
2022/11/16 00:08:40;;;;;;;28.05;13.07;;;11.40;99.90;;;;;;4969978;28;20039;-61
2022/11/16 00:11:08;;;;;;;18.65;10.57;;;11.40;99.90;;;;;;4974417;28;20027;-61
2022/11/16 00:13:34;;;;;;;20.17;11.10;;;11.40;99.90;;;;;;4983286;28;20040;-63
2022/11/16 00:16:00;;;;;;;23.92;10.93;;;11.40;99.90;;;;;;4972611;28;20062;-62
2022/11/16 00:18:26;;;;;;;21.55;11.93;;;11.40;99.90;;;;;;4973939;28;20026;-61
2022/11/16 00:20:52;;;;;;;26.33;11.20;;;11.40;99.90;;;;;;4965999;28;20055;-62
2022/11/16 00:23:18;;;;;;;26.50;11.77;;;11.40;99.90;;;;;;4967327;28;20039;-61
2022/11/16 00:25:43;;;;;;;19.20;10.50;;;11.40;99.90;;;;;;4964693;28;20030;-61
2022/11/16 00:28:09;;;;;;;21.75;10.80;;;11.40;99.90;;;;;;4972264;28;20045;-61
2022/11/16 00:30:35;;;;;;;23.17;11.13;;;11.40;99.90;;;;;;4951871;28;20058;-61
2022/11/16 00:33:03;;;;;;;21.98;10.55;;;11.40;99.90;;;;;;4967345;28;20058;-61
2022/11/16 00:35:28;;;;;;;23.88;11.60;;;11.40;99.90;;;;;;4970531;28;20031;-60
2022/11/16 00:37:54;;;;;;;22.02;11.10;;;11.40;99.90;;;;;;4953227;28;20575;-60
2022/11/16 00:40:19;;;;;;;28.50;11.77;;;11.40;99.90;;;;;;4970227;28;20035;-61
2022/11/16 00:42:45;;;;;;;20.45;11.20;;;11.40;99.90;;;;;;4970827;28;21817;-60
2022/11/16 00:45:11;;;;;;;25.17;11.43;;;11.40;99.90;;;;;;4970187;28;20035;-61
2022/11/16 00:47:37;;;;;;;22.45;11.90;;;11.50;99.90;;;;;;4972184;28;20032;-61
2022/11/16 00:50:03;;;;;;;18.15;11.77;;;11.50;99.90;;;;;;4964029;28;20411;-60
2022/11/16 00:52:28;;;;;;;20.20;11.80;;;11.40;99.90;;;;;;4969846;28;20031;-61
2022/11/16 00:54:54;;;;;;;21.55;12.15;;;11.50;99.90;;;;;;4970507;28;20034;-62
2022/11/16 00:57:19;;;;;;;22.15;10.95;;;11.40;99.90;;;;;;4972915;28;20022;-61
2022/11/16 00:59:45;;;;;;;18.50;10.30;;;11.50;99.90;;;;;;4968853;28;20098;-62
2022/11/16 01:02:10;;;;;;;25.92;11.32;;;11.40;99.90;;;;;;4973696;28;20405;-61
2022/11/16 01:04:36;;;;;;;23.13;11.43;;;11.50;99.90;;;;;;4965990;28;20026;-62
2022/11/16 01:07:02;;;;;;;24.92;10.63;;;11.50;99.90;;;;;;4971069;28;20040;-62
2022/11/16 01:09:27;;;;;;;28.05;11.95;;;11.50;99.90;;;;;;4965637;28;20038;-61
2022/11/16 01:12:08;;;;;;;25.27;11.75;;;11.50;99.90;;;;;;4968948;28;20035;-62
2022/11/16 01:14:39;;;;;;;22.02;10.68;;;11.50;99.90;;;;;;4968596;28;20504;-63
2022/11/16 01:17:06;;;;;;;22.08;11.00;;;11.50;99.90;;;;;;4966928;28;20155;-60
2022/11/16 01:19:32;;;;;;;24.92;11.75;;;11.50;99.90;;;;;;4971978;28;20054;-62
2022/11/16 01:21:57;;;;;;;28.63;12.63;;;11.50;99.90;;;;;;4964999;28;20056;-62
2022/11/16 01:24:25;;;;;;;24.58;11.25;;;11.50;99.90;;;;;;4967603;28;20038;-61
2022/11/16 01:26:51;;;;;;;25.92;11.23;;;11.50;99.90;;;;;;4970048;28;20512;-62
2022/11/16 01:29:16;;;;;;;24.05;11.32;;;11.50;99.90;;;;;;4969504;28;20118;-61
2022/11/16 01:31:42;;;;;;;24.60;12.07;;;11.50;99.90;;;;;;4975508;28;20524;-61
2022/11/16 01:34:08;;;;;;;23.25;11.68;;;11.60;99.90;;;;;;4973535;28;20046;-62
2022/11/16 01:36:35;;;;;;;23.75;12.65;;;11.50;99.90;;;;;;4971889;28;20417;-62
2022/11/16 01:39:01;;;;;;;21.02;11.70;;;11.50;99.90;;;;;;4976638;28;20019;-61
2022/11/16 01:41:27;;;;;;;24.40;11.77;;;11.50;99.90;;;;;;4974941;28;20019;-62
2022/11/16 01:43:57;;;;;;;26.45;11.73;;;11.50;99.90;;;;;;4972491;28;20023;-63
2022/11/16 01:46:24;;;;;;;22.30;11.85;;;11.60;99.90;;;;;;4973865;28;20037;-62
2022/11/16 01:49:19;;;;;;;36.40;13.18;;;11.60;99.90;;;;;;4976810;28;20118;-62
2022/11/16 01:51:46;;;;;;;;;;;11.50;99.90;;;;;;4964451;28;20035;-63
2022/11/16 01:54:12;;;;;;;22.77;12.48;;;11.60;99.90;;;;;;4973492;28;19932;-63
2022/11/16 01:56:40;;;;;;;26.25;12.77;;;11.60;99.90;;;;;;4972502;28;20026;-62
2022/11/16 01:59:07;;;;;;;29.75;12.70;;;11.60;99.90;;;;;;4977047;28;20033;-63
2022/11/16 02:01:32;;;;;;;23.05;12.45;;;11.70;99.90;;;;;;4973193;28;20098;-63
2022/11/16 02:03:58;;;;;;;25.75;12.50;;;11.70;99.90;;;;;;4976453;28;20114;-61
2022/11/16 02:06:26;;;;;;;27.60;13.00;;;11.70;99.90;;;;;;4972634;28;20026;-62
2022/11/16 02:12:36;;;;;;;30.75;13.82;;;11.70;99.90;;;;;;4975259;28;20033;-61
2022/11/16 02:15:01;;;;;;;25.15;13.05;;;11.60;99.90;;;;;;4960766;28;20061;-61
2022/11/16 02:17:45;;;;;;;27.38;13.07;;;11.60;99.90;;;;;;4950526;28;20027;-62
2022/11/16 02:20:17;;;;;;;33.50;14.23;;;11.60;99.90;;;;;;4969728;28;20035;-62
2022/11/16 02:22:45;;;;;;;27.85;14.05;;;11.60;99.90;;;;;;4976459;28;20457;-61
2022/11/16 02:25:34;;;;;;;21.52;11.88;;;11.60;99.90;;;;;;4970599;28;20035;-62
2022/11/16 02:28:21;;;;;;;30.45;12.98;;;11.60;99.90;;;;;;4943432;28;20130;-61
2022/11/16 02:30:49;;;;;;;26.15;13.38;;;11.70;99.90;;;;;;4969400;28;20041;-61
2022/11/16 02:33:20;;;;;;;33.47;14.70;;;11.60;99.90;;;;;;4968856;28;20038;-64
2022/11/16 02:35:52;;;;;;;30.95;13.55;;;11.60;99.90;;;;;;4975005;28;20031;-62
2022/11/16 02:38:28;;;;;;;29.17;14.20;;;11.60;99.90;;;;;;4970987;28;20546;-63
2022/11/16 02:41:03;;;;;;;25.05;13.38;;;11.60;99.90;;;;;;4954313;28;20570;-61
2022/11/16 02:43:34;;;;;;;32.15;13.73;;;11.50;99.90;;;;;;4969733;28;20034;-62
2022/11/16 02:46:06;;;;;;;29.58;13.07;;;11.60;99.90;;;;;;4970143;28;20062;-61
2022/11/16 02:48:36;;;;;;;25.48;12.65;;;11.60;99.90;;;;;;4970917;28;20034;-60
2022/11/16 02:51:05;;;;;;;23.08;12.10;;;11.50;99.90;;;;;;4970419;28;20505;-61
2022/11/16 02:53:35;;;;;;;19.88;10.73;;;11.60;99.90;;;;;;4969201;28;20649;-61
2022/11/16 02:56:01;;;;;;;21.45;10.73;;;11.60;99.90;;;;;;4981518;28;20030;-63
2022/11/16 02:58:28;;;;;;;25.48;11.85;;;11.50;99.90;;;;;;4953951;28;20126;-61
2022/11/16 03:01:04;;;;;;;32.35;11.63;;;11.50;99.90;;;;;;4970719;28;20035;-62
2022/11/16 03:03:45;;;;;;;24.33;11.88;;;11.50;99.90;;;;;;4969727;28;20031;-62
2022/11/16 03:06:22;;;;;;;25.15;12.13;;;11.50;99.90;;;;;;4976460;28;20428;-62
2022/11/16 03:09:07;;;;;;;22.67;11.43;;;11.40;99.90;;;;;;4964781;28;20038;-62
2022/11/16 03:14:24;;;;;;;26.80;11.95;;;11.50;99.90;;;;;;4981612;28;20028;-62
2022/11/16 03:16:56;;;;;;;21.63;11.52;;;11.50;99.90;;;;;;4968962;28;20045;-62
2022/11/16 03:19:38;;;;;;;25.42;11.52;;;11.40;99.90;;;;;;4977522;28;20031;-62
2022/11/16 03:22:04;;;;;;;19.15;10.48;;;11.40;99.90;;;;;;4970680;28;20033;-63
2022/11/16 03:24:30;;;;;;;21.73;11.57;;;11.40;99.90;;;;;;4975267;28;20027;-63
2022/11/16 03:27:10;;;;;;;22.58;10.05;;;11.40;99.90;;;;;;4972311;28;20022;-61
2022/11/16 03:30:05;;;;;;;22.45;10.27;;;11.40;99.90;;;;;;4975639;28;20027;-61
2022/11/16 03:32:37;;;;;;;18.80;9.35;;;11.40;99.90;;;;;;4968025;28;20435;-62
2022/11/16 03:35:18;;;;;;;17.02;8.80;;;11.40;99.90;;;;;;4969946;28;22060;-62
2022/11/16 03:37:46;;;;;;;15.98;8.43;;;11.40;99.90;;;;;;4964087;28;20113;-60
2022/11/16 03:40:12;;;;;;;22.98;8.32;;;11.40;99.90;;;;;;4972020;28;20034;-62
2022/11/16 03:42:39;;;;;;;15.60;8.13;;;11.40;99.90;;;;;;4974774;28;20109;-62
2022/11/16 03:45:06;;;;;;;18.05;8.57;;;11.50;99.90;;;;;;4978792;28;20401;-63
2022/11/16 03:47:31;;;;;;;18.25;9.23;;;11.50;99.90;;;;;;4974631;28;20523;-62
2022/11/16 03:49:57;;;;;;;27.67;9.43;;;11.40;99.90;;;;;;4978051;28;20066;-61
2022/11/16 03:52:23;;;;;;;22.90;8.98;;;11.40;99.90;;;;;;4971496;28;20084;-62
2022/11/16 03:54:48;;;;;;;20.42;8.27;;;11.40;99.90;;;;;;4970162;28;20035;-60
2022/11/16 03:57:17;;;;;;;21.02;8.73;;;11.40;99.90;;;;;;4973771;28;20388;-62
2022/11/16 03:59:44;;;;;;;19.60;8.70;;;11.30;99.90;;;;;;4973545;28;20110;-62
2022/11/16 04:02:10;;;;;;;17.50;7.75;;;11.30;99.90;;;;;;4973945;28;20547;-62
2022/11/16 04:29:17;;;;;;;5.05;2.88;;;11.40;99.90;;;;;;4972807;28;20042;-62
2022/11/16 04:40:02;;;;;;;4.82;2.72;;;11.40;99.90;;;;;;4974500;28;20531;-62
2022/11/16 04:42:28;;;;;;;5.60;3.58;;;11.40;99.90;;;;;;4976267;28;20067;-62
2022/11/16 04:47:37;;;;;;;3.55;3.08;;;11.50;99.90;;;;;;4973416;28;20065;-62
2022/11/16 04:50:03;;;;;;;4.80;3.47;;;11.50;99.90;;;;;;4967783;28;20453;-61
2022/11/16 04:52:29;;;;;;;3.72;2.85;;;11.50;99.90;;;;;;4971374;28;20023;-62
2022/11/16 04:54:54;;;;;;;3.88;2.72;;;11.50;99.90;;;;;;4971421;28;20130;-62
2022/11/16 04:57:20;;;;;;;5.95;3.65;;;11.50;99.90;;;;;;4974019;28;20101;-62
2022/11/16 04:59:45;;;;;;;4.85;3.13;;;11.40;99.90;;;;;;4973387;28;20031;-62
2022/11/16 05:02:11;;;;;;;5.35;3.17;;;11.50;99.90;;;;;;4973884;28;20397;-62
2022/11/16 05:04:40;;;;;;;7.13;4.10;;;11.40;99.90;;;;;;4971219;28;20163;-61
2022/11/16 05:07:10;;;;;;;9.63;3.70;;;11.40;99.90;;;;;;4967240;28;20027;-61
2022/11/16 05:09:47;;;;;;;5.95;3.67;;;11.40;99.90;;;;;;4967685;28;20085;-61
2022/11/16 05:12:21;;;;;;;7.90;2.97;;;11.40;99.90;;;;;;4975464;28;20026;-62
2022/11/16 05:14:46;;;;;;;5.05;3.45;;;11.40;99.90;;;;;;4978561;28;20038;-61
2022/11/16 05:17:13;;;;;;;7.50;3.25;;;11.30;99.90;;;;;;4974307;28;20026;-62
2022/11/16 05:22:23;;;;;;;6.85;3.13;;;11.20;99.90;;;;;;4982302;28;20029;-59
2022/11/16 05:24:49;;;;;;;5.05;3.08;;;11.20;99.90;;;;;;4988341;28;20037;-60
2022/11/16 05:27:16;;;;;;;7.25;3.67;;;11.10;99.90;;;;;;4990483;28;20068;-59
2022/11/16 05:29:42;;;;;;;7.28;3.10;;;11.10;99.90;;;;;;4993171;28;20117;-58
2022/11/16 05:32:10;;;;;;;7.10;3.80;;;11.00;99.90;;;;;;4991312;28;20049;-61
2022/11/16 05:34:36;;;;;;;8.10;3.30;;;11.00;99.90;;;;;;4986007;28;20511;-58
2022/11/16 05:37:02;;;;;;;9.15;3.72;;;11.00;99.90;;;;;;4981485;28;20047;-58
2022/11/16 05:39:27;;;;;;;7.18;3.78;;;11.10;99.90;;;;;;4989170;28;20033;-55
2022/11/16 05:41:53;;;;;;;8.82;4.28;;;11.00;99.90;;;;;;4992187;28;20021;-58
2022/11/16 05:44:19;;;;;;;10.32;4.25;;;10.90;99.90;;;;;;4986918;28;20030;-59
2022/11/16 05:46:45;;;;;;;8.90;3.47;;;10.90;99.90;;;;;;4984686;28;20041;-60
2022/11/16 05:49:11;;;;;;;7.00;4.03;;;10.90;99.90;;;;;;4979217;28;20055;-59
2022/11/16 05:51:39;;;;;;;10.38;4.00;;;10.80;99.90;;;;;;4980854;28;20086;-60
2022/11/16 05:54:05;;;;;;;10.30;6.93;;;10.80;99.90;;;;;;4991566;28;20416;-61
2022/11/16 05:56:31;;;;;;;5.53;3.50;;;10.70;99.90;;;;;;4989014;28;20064;-59
2022/11/16 05:58:57;;;;;;;16.73;4.95;;;10.60;99.90;;;;;;4986682;28;20025;-57
2022/11/16 06:01:24;;;;;;;11.75;3.80;;;10.50;99.90;;;;;;4979740;28;20439;-61
2022/11/16 06:03:49;;;;;;;6.00;3.13;;;10.50;99.90;;;;;;4978127;28;20042;-58
2022/11/16 06:06:15;;;;;;;4.90;3.35;;;10.40;99.90;;;;;;4982427;28;20030;-58
2022/11/16 06:08:40;;;;;;;8.82;3.25;;;10.30;99.90;;;;;;4987689;28;20038;-60
2022/11/16 06:11:08;;;;;;;10.40;3.08;;;10.20;99.90;;;;;;4991718;28;20507;-59
2022/11/16 06:13:34;;;;;;;10.68;4.72;;;10.20;99.90;;;;;;4980096;28;20578;-58
2022/11/16 06:16:01;;;;;;;9.50;3.83;;;10.20;99.90;;;;;;4983001;28;20113;-58
2022/11/16 06:18:26;;;;;;;12.85;6.70;;;10.00;99.90;;;;;;4988893;28;20015;-57
2022/11/16 06:20:52;;;;;;;9.70;3.95;;;10.00;99.90;;;;;;4988055;28;20381;-57
2022/11/16 06:23:18;;;;;;;7.20;3.85;;;10.00;99.90;;;;;;4987369;28;20039;-54
2022/11/16 06:25:43;;;;;;;50.28;8.43;;;9.80;99.90;;;;;;4985347;28;20037;-57
2022/11/16 06:28:09;;;;;;;14.52;3.75;;;9.60;99.90;;;;;;4978168;28;20802;-58
2022/11/16 06:30:37;;;;;;;7.72;3.15;;;9.60;99.90;;;;;;4988161;28;20045;-56
2022/11/16 06:33:03;;;;;;;6.18;3.35;;;9.50;99.90;;;;;;4989183;28;20038;-57
2022/11/16 06:35:29;;;;;;;7.13;2.88;;;9.50;99.90;;;;;;4981222;28;20050;-61
2022/11/16 06:37:54;;;;;;;7.25;2.85;;;9.40;99.90;;;;;;4993030;28;20500;-59
2022/11/16 06:40:20;;;;;;;5.05;2.55;;;9.40;99.90;;;;;;4981610;28;20038;-61
2022/11/16 06:42:46;;;;;;;6.13;3.38;;;9.40;99.90;;;;;;4986126;28;20027;-59
2022/11/16 06:45:11;;;;;;;9.57;3.28;;;9.30;99.90;;;;;;4988991;28;20400;-56
2022/11/16 06:47:37;;;;;;;13.77;3.50;;;9.30;99.90;;;;;;4991569;28;20034;-60
2022/11/16 06:50:02;;;;;;;9.15;3.30;;;9.30;99.90;;;;;;4991949;28;20022;-57
2022/11/16 06:52:28;;;;;;;12.77;3.75;;;9.40;99.90;;;;;;4988772;28;20033;-58
2022/11/16 06:54:54;;;;;;;10.57;3.92;;;9.30;99.90;;;;;;4986455;28;20042;-61
2022/11/16 06:57:19;;;;;;;11.60;4.43;;;9.60;99.90;;;;;;4988061;28;20547;-60
2022/11/16 06:59:45;;;;;;;11.68;3.92;;;9.50;99.90;;;;;;4988283;28;20046;-60
2022/11/16 07:02:11;;;;;;;11.00;3.67;;;9.40;99.90;;;;;;4986698;28;20033;-60
2022/11/16 07:04:37;;;;;;;11.50;3.90;;;9.30;99.90;;;;;;4990611;28;20077;-59
2022/11/16 07:07:02;;;;;;;9.35;4.10;;;9.20;99.90;;;;;;4991639;28;20500;-60
2022/11/16 07:09:28;;;;;;;6.38;3.85;;;9.20;99.90;;;;;;4988248;28;20109;-60
2022/11/16 07:11:53;;;;;;;12.88;5.07;;;9.10;99.90;;;;;;4989516;28;20036;-60
2022/11/16 07:14:19;;;;;;;14.05;4.32;;;9.20;99.90;;;;;;4991254;28;20061;-61
2022/11/16 07:16:44;;;;;;;6.57;3.67;;;9.00;99.90;;;;;;4989520;28;20064;-61
2022/11/16 07:19:10;;;;;;;7.95;4.55;;;8.90;99.90;;;;;;4989937;28;20453;-61
2022/11/16 07:21:37;;;;;;;12.95;4.28;;;8.90;99.90;;;;;;4993816;28;20018;-59
2022/11/16 07:24:02;;;;;;;14.60;3.95;;;8.90;99.90;;;;;;4996624;28;20085;-59
2022/11/16 07:26:30;;;;;;;7.82;3.15;;;8.90;99.90;;;;;;4997920;28;20034;-60
2022/11/16 07:28:57;;;;;;;9.95;3.78;;;8.80;99.90;;;;;;4997885;28;20033;-59
2022/11/16 07:31:22;;;;;;;11.32;3.92;;;8.80;99.90;;;;;;4992212;28;20054;-60
2022/11/16 07:33:48;;;;;;;10.90;4.22;;;8.70;99.90;;;;;;4997638;28;20085;-61
2022/11/16 07:36:14;;;;;;;9.50;4.07;;;8.60;99.90;;;;;;4978651;28;20034;-59
2022/11/16 07:38:40;;;;;;;12.50;4.00;;;8.70;99.90;;;;;;4991965;28;20038;-60
2022/11/16 07:41:08;;;;;;;15.73;4.05;;;8.70;99.90;;;;;;4987615;28;20019;-56
2022/11/16 07:43:35;;;;;;;10.13;3.65;;;8.80;99.90;;;;;;4992217;28;20500;-60
2022/11/16 07:46:11;;;;;;;16.98;4.00;;;8.80;99.90;;;;;;4996884;28;20066;-58
2022/11/16 07:48:37;;;;;;;12.93;4.07;;;8.80;99.90;;;;;;4994407;28;20030;-59
2022/11/16 07:51:05;;;;;;;15.50;4.68;;;8.80;99.90;;;;;;4996600;28;20030;-57
2022/11/16 07:53:31;;;;;;;15.48;3.90;;;8.80;99.90;;;;;;4996793;28;20066;-60
2022/11/16 07:55:57;;;;;;;10.75;3.55;;;8.80;99.90;;;;;;4997682;28;20109;-59
2022/11/16 07:58:23;;;;;;;12.50;2.72;;;8.80;99.90;;;;;;4997350;28;20216;-60
2022/11/16 08:00:49;;;;;;;7.55;3.25;;;8.80;99.90;;;;;;4996661;28;20495;-59
2022/11/16 08:03:14;;;;;;;7.05;2.92;;;8.80;99.90;;;;;;4997670;28;20030;-63
2022/11/16 08:05:40;;;;;;;7.85;3.42;;;8.80;99.90;;;;;;4996833;28;20031;-60
2022/11/16 08:08:05;;;;;;;7.25;2.58;;;8.80;99.90;;;;;;4997295;28;20057;-59
2022/11/16 08:10:31;;;;;;;13.98;3.45;;;8.80;99.90;;;;;;4996746;28;20030;-59
2022/11/16 08:12:57;;;;;;;7.85;2.78;;;8.80;99.90;;;;;;4997721;28;20038;-60
2022/11/16 08:15:24;;;;;;;8.93;2.63;;;8.80;99.90;;;;;;4996696;28;20078;-60
2022/11/16 08:17:49;;;;;;;7.97;3.08;;;8.80;99.90;;;;;;4997636;28;20038;-59
2022/11/16 08:20:15;;;;;;;10.93;2.95;;;8.80;99.90;;;;;;4995134;28;20109;-58
2022/11/16 08:22:42;;;;;;;11.57;3.05;;;8.90;99.90;;;;;;4991447;28;20034;-56
2022/11/16 08:25:08;;;;;;;14.43;2.75;;;8.90;99.90;;;;;;4996488;28;20104;-60
2022/11/16 08:27:34;;;;;;;9.48;3.00;;;9.00;99.90;;;;;;4996592;28;20026;-60
2022/11/16 08:30:01;;;;;;;11.10;3.67;;;9.10;99.90;;;;;;4996508;28;20080;-61
2022/11/16 08:32:30;;;;;;;12.75;3.58;;;9.10;99.90;;;;;;4992126;28;20030;-55
2022/11/16 08:34:56;;;;;;;11.13;3.97;;;9.10;99.90;;;;;;4991699;28;20034;-60
2022/11/16 08:37:21;;;;;;;11.23;4.00;;;9.20;99.90;;;;;;4993396;28;20023;-61
2022/11/16 08:39:47;;;;;;;12.68;3.47;;;9.20;99.90;;;;;;4993090;28;20054;-60
2022/11/16 08:42:13;;;;;;;8.45;3.05;;;9.30;99.90;;;;;;4991991;28;20026;-60
2022/11/16 08:44:38;;;;;;;18.23;5.20;;;9.30;99.90;;;;;;4992898;28;20401;-61
2022/11/16 08:47:04;;;;;;;8.73;3.28;;;9.40;99.90;;;;;;4993002;28;20142;-61
2022/11/16 08:49:29;;;;;;;9.20;3.15;;;9.40;99.90;;;;;;4988122;28;20056;-61
2022/11/16 08:51:55;;;;;;;10.48;3.22;;;9.50;99.90;;;;;;4986481;28;20496;-61
2022/11/16 08:54:21;;;;;;;14.52;3.53;;;9.70;99.90;;;;;;4993614;28;20052;-62
2022/11/16 08:56:46;;;;;;;9.80;3.40;;;9.80;99.90;;;;;;4993099;28;20030;-61
2022/11/16 08:59:12;;;;;;;10.27;2.92;;;10.00;99.90;;;;;;4992852;28;20027;-61
2022/11/16 09:01:38;;;;;;;13.60;2.20;;;10.00;99.90;;;;;;4991100;28;20109;-63
2022/11/16 09:04:03;;;;;;;10.40;2.15;;;10.10;99.90;;;;;;4985526;28;20137;-62
2022/11/16 09:06:29;;;;;;;16.92;2.72;;;10.10;99.90;;;;;;4991299;28;20031;-60
2022/11/16 09:08:55;;;;;;;13.90;2.38;;;10.20;99.90;;;;;;4991445;28;20055;-59
2022/11/16 09:11:22;;;;;;;11.05;2.08;;;10.20;99.90;;;;;;4990308;28;20022;-59
2022/11/16 09:13:50;;;;;;;8.82;1.90;;;10.20;99.90;;;;;;4990937;28;20188;-56
2022/11/16 09:16:16;;;;;;;10.43;2.03;;;10.30;99.90;;;;;;4991195;28;20369;-62
2022/11/16 09:18:45;;;;;;;17.33;2.42;;;10.30;99.90;;;;;;4984478;28;20042;-60
2022/11/16 09:21:11;;;;;;;15.98;3.17;;;10.40;99.90;;;;;;4954002;28;1048985;-63
2022/11/16 09:23:36;;;;;;;18.05;2.38;;;10.40;99.90;;;;;;4991782;28;20531;-62
2022/11/16 09:26:03;;;;;;;10.20;1.92;;;10.50;99.90;;;;;;4992501;28;20042;-62
2022/11/16 09:28:29;;;;;;;9.15;1.95;;;10.50;99.90;;;;;;4992695;28;20097;-62
2022/11/16 09:31:00;;;;;;;11.45;1.80;;;10.60;99.90;;;;;;4991209;28;20404;-61
2022/11/16 09:33:31;;;;;;;13.13;1.45;;;10.60;99.90;;;;;;4990285;28;20042;-62
2022/11/16 09:36:07;;;;;;;12.68;1.80;;;10.60;99.90;;;;;;4991847;28;20396;-61
2022/11/16 09:38:34;;;;;;;7.20;1.63;;;10.60;99.90;;;;;;4990504;28;20058;-61
2022/11/16 09:41:09;;;;;;;14.90;1.80;;;10.60;99.90;;;;;;4990845;28;20117;-61
2022/11/16 09:43:46;;;;;;;12.10;1.80;;;10.60;99.90;;;;;;4991250;28;20338;-61
2022/11/16 09:46:20;;;;;;;10.88;1.77;;;10.70;99.90;;;;;;4992130;28;20026;-62
2022/11/16 09:48:47;;;;;;;;;;;10.70;99.90;;;;;;4991907;28;20451;-61
2022/11/16 09:51:14;;;;;;;8.27;1.85;;;10.70;99.90;;;;;;4991395;28;19906;-60
2022/11/16 09:54:15;;;;;;;9.20;1.80;;;10.70;99.90;;;;;;4991561;28;20104;-59
2022/11/16 09:56:42;;;;;;;9.35;1.63;;;10.80;99.90;;;;;;4959256;28;20055;-59
2022/11/16 09:59:08;;;;;;;12.98;1.60;;;10.90;99.90;;;;;;4991972;28;20446;-61
2022/11/16 10:02:00;;;;;;;16.38;1.70;;;10.90;99.90;;;;;;4989271;28;20230;-59
2022/11/16 10:04:47;;;;;;;12.82;1.55;;;11.00;99.90;;;;;;4968541;28;20062;-61
2022/11/16 10:07:26;;;;;;;12.00;1.30;;;11.10;99.90;;;;;;4991291;28;20019;-60
2022/11/16 10:09:51;;;;;;;6.65;1.30;;;11.20;99.90;;;;;;4990711;28;20045;-59
2022/11/16 10:12:20;;;;;;;16.98;1.30;;;11.20;99.90;;;;;;4990089;28;20496;-55
2022/11/16 10:15:27;;;;;;;13.18;1.48;;;11.20;99.90;;;;;;4986441;28;20022;-61
2022/11/16 10:18:11;;;;;;;8.40;1.20;;;11.30;99.90;;;;;;4991393;28;20109;-59
2022/11/16 10:20:55;;;;;;;15.00;1.83;;;11.30;99.90;;;;;;4989871;28;20105;-59
2022/11/16 10:23:48;;;;;;;10.13;1.20;;;11.40;99.90;;;;;;4990286;28;20023;-60
2022/11/16 10:26:25;;;;;;;10.77;1.30;;;11.40;99.90;;;;;;4990929;28;20133;-56
2022/11/16 10:29:09;;;;;;;14.82;1.27;;;11.50;99.90;;;;;;4989781;28;20058;-56
2022/11/16 10:31:50;;;;;;;13.93;1.63;;;11.50;99.90;;;;;;4989596;28;20028;-61
2022/11/16 10:34:21;;;;;;;17.77;1.98;;;11.60;99.90;;;;;;4990448;28;20061;-59
2022/11/16 10:36:55;;;;;;;8.95;1.23;;;11.70;99.90;;;;;;4990374;28;20022;-58
2022/11/16 10:39:21;;;;;;;11.65;2.20;;;11.70;99.90;;;;;;4991180;28;20485;-58
2022/11/16 10:41:51;;;;;;;8.55;1.63;;;11.70;99.90;;;;;;4989060;28;20037;-55
2022/11/16 10:44:40;;;;;;;10.88;1.92;;;11.70;99.90;;;;;;4984230;28;20029;-58
2022/11/16 10:47:41;;;;;;;7.65;1.15;;;11.80;99.90;;;;;;4989928;28;20381;-61
2022/11/16 10:50:30;;;;;;;8.40;1.45;;;11.80;99.90;;;;;;4989479;28;20368;-57
2022/11/16 10:52:56;;;;;;;6.95;1.52;;;11.90;99.90;;;;;;4990599;28;20473;-58
2022/11/16 10:55:23;;;;;;;8.68;1.77;;;11.90;99.90;;;;;;4989334;28;20134;-59
2022/11/16 10:58:05;;;;;;;4.57;0.98;;;11.90;99.90;;;;;;4989559;28;20026;-58
2022/11/16 11:00:40;;;;;;;7.40;1.27;;;12.00;99.90;;;;;;4988973;28;20026;-58
2022/11/16 11:03:08;;;;;;;6.68;0.90;;;12.00;99.90;;;;;;4990586;28;20703;-56
2022/11/16 11:05:35;;;;;;;10.18;1.20;;;12.00;99.90;;;;;;4990577;28;20489;-59
2022/11/16 11:08:08;;;;;;;14.65;1.42;;;12.10;99.90;;;;;;4990671;28;20117;-57
2022/11/16 11:10:37;;;;;;;7.95;1.23;;;12.20;99.90;;;;;;4989513;28;20035;-58
2022/11/16 11:13:09;;;;;;;4.75;1.00;;;12.20;99.90;;;;;;4989463;28;20105;-58
2022/11/16 11:15:35;;;;;;;11.80;1.15;;;12.30;99.90;;;;;;4990419;28;20026;-63
2022/11/16 11:18:22;;;;;;;9.05;1.15;;;12.30;99.90;;;;;;4989806;28;20073;-58
2022/11/16 11:21:04;;;;;;;7.28;1.73;;;12.30;99.90;;;;;;4984321;28;20042;-58
2022/11/16 11:23:39;;;;;;;12.00;1.42;;;12.40;99.90;;;;;;4985288;28;20023;-53
2022/11/16 11:26:05;;;;;;;9.90;2.13;;;12.50;99.90;;;;;;4989478;28;20034;-60
2022/11/16 11:28:45;;;;;;;11.88;1.00;;;12.80;99.90;;;;;;4990336;28;20037;-58
2022/11/16 11:31:26;;;;;;;9.85;1.38;;;13.00;99.90;;;;;;4986769;28;20479;-62
2022/11/16 11:33:55;;;;;;;6.43;0.93;;;13.20;99.90;;;;;;4989916;28;20026;-59
2022/11/16 11:36:31;;;;;;;5.30;1.45;;;13.30;99.90;;;;;;4990230;28;20064;-61
2022/11/16 11:39:10;;;;;;;4.75;1.08;;;13.50;99.90;;;;;;4988489;28;20080;-59
2022/11/16 11:41:41;;;;;;;8.13;1.33;;;13.60;99.90;;;;;;4982812;28;20030;-61
2022/11/16 11:44:12;;;;;;;8.18;1.23;;;13.70;99.90;;;;;;4989498;28;20030;-61
2022/11/16 11:46:44;;;;;;;6.90;0.90;;;13.70;99.90;;;;;;4989313;28;20026;-60
2022/11/16 11:49:17;;;;;;;2.33;0.90;;;13.70;99.90;;;;;;4990275;28;20015;-58
2022/11/16 11:51:45;;;;;;;7.68;0.95;;;13.70;99.90;;;;;;4989184;28;20032;-57
2022/11/16 11:54:33;;;;;;;3.67;0.90;;;13.80;99.90;;;;;;4986784;28;20037;-59
2022/11/16 11:57:01;;;;;;;8.20;0.95;;;14.10;99.90;;;;;;4984302;28;20054;-59
2022/11/16 11:59:27;;;;;;;4.68;0.88;;;14.10;99.90;;;;;;4989189;28;20060;-55
2022/11/16 12:02:23;;;;;;;7.63;1.00;;;14.20;99.90;;;;;;4988756;28;20392;-56
2022/11/16 12:05:02;;;;;;;5.28;1.05;;;14.20;99.90;;;;;;4989219;28;20034;-55
2022/11/16 12:07:27;;;;;;;3.53;0.90;;;14.30;99.90;;;;;;4989867;28;20034;-59
2022/11/16 12:10:06;;;;;;;11.20;1.27;;;14.40;99.90;;;;;;4986294;28;20048;-59
2022/11/16 12:12:50;;;;;;;7.68;1.17;;;14.40;99.90;;;;;;4991253;28;20735;-58
2022/11/16 12:15:41;;;;;;;6.28;1.08;;;14.70;99.90;;;;;;4993058;28;20057;-57
2022/11/16 12:18:19;;;;;;;7.57;1.13;;;14.80;99.90;;;;;;4993579;28;20031;-59
2022/11/16 12:21:02;;;;;;;5.80;0.73;;;14.60;99.90;;;;;;4992111;28;20071;-59
2022/11/16 12:23:34;;;;;;;6.50;0.90;;;14.30;99.90;;;;;;4992629;28;20491;-61
2022/11/16 12:26:23;;;;;;;5.03;1.17;;;14.10;99.90;;;;;;4993176;28;20026;-58
2022/11/16 12:29:13;;;;;;;11.25;1.13;;;14.00;99.90;;;;;;4987081;28;20027;-59
2022/11/16 12:32:07;;;;;;;7.32;0.95;;;14.00;99.90;;;;;;4991671;28;20062;-61
2022/11/16 12:35:15;;;;;;;4.72;0.85;;;13.70;99.90;;;;;;4992870;28;20551;-57
2022/11/16 12:38:03;;;;;;;6.55;0.93;;;14.00;99.90;;;;;;4991699;28;20027;-59
2022/11/16 12:41:02;;;;;;;12.40;1.02;;;14.30;99.90;;;;;;4986876;28;20545;-60
2022/11/16 12:43:43;;;;;;;6.10;1.17;;;14.20;99.90;;;;;;4989072;28;20117;-58
2022/11/16 12:46:20;;;;;;;4.93;1.15;;;13.90;99.90;;;;;;4994706;28;20149;-61
2022/11/16 12:49:23;;;;;;;11.50;1.33;;;13.80;99.90;;;;;;4992479;28;20034;-61
2022/11/16 12:52:19;;;;;;;8.77;1.08;;;13.70;99.90;;;;;;4979318;28;20711;-62
2022/11/16 12:54:57;;;;;;;6.53;1.25;;;13.60;99.90;;;;;;4980088;28;20042;-61
2022/11/16 12:57:38;;;;;;;8.13;1.17;;;13.70;99.90;;;;;;4987028;28;20026;-60
2022/11/16 13:00:13;;;;;;;5.07;0.90;;;13.60;99.90;;;;;;4986176;28;20054;-59
2022/11/16 13:03:17;;;;;;;4.15;0.80;;;13.60;99.90;;;;;;4991054;28;20484;-57
2022/11/16 13:05:54;;;;;;;6.70;0.90;;;13.70;99.90;;;;;;4990507;28;20077;-61
2022/11/16 13:08:32;;;;;;;4.35;0.75;;;13.90;99.90;;;;;;4981693;28;20047;-57
2022/11/16 13:11:23;;;;;;;7.00;0.90;;;14.10;99.90;;;;;;4986206;28;20037;-58
2022/11/16 13:13:54;;;;;;;5.40;0.90;;;14.20;99.90;;;;;;4991758;28;20030;-58
2022/11/16 13:16:25;;;;;;;1.33;0.88;;;14.10;99.90;;;;;;4968219;28;20058;-60
2022/11/16 13:18:57;;;;;;;3.22;0.90;;;14.20;99.90;;;;;;4985111;28;20018;-60
2022/11/16 13:21:48;;;;;;;7.53;0.85;;;14.20;99.90;;;;;;4972198;28;20022;-58
2022/11/16 13:24:17;;;;;;;4.18;0.95;;;14.40;99.90;;;;;;4995271;28;20102;-58
2022/11/16 13:27:13;;;;;;;9.32;0.70;;;14.60;99.90;;;;;;4987354;28;20027;-59
2022/11/16 13:30:16;;;;;;;3.45;0.70;;;14.50;99.90;;;;;;4988275;28;20035;-61
2022/11/16 13:33:09;;;;;;;2.95;0.80;;;14.50;99.90;;;;;;4988475;28;20496;-57
2022/11/16 13:35:37;;;;;;;4.05;0.65;;;14.30;99.90;;;;;;4986206;28;20042;-58
2022/11/16 13:38:02;;;;;;;5.63;1.30;;;14.20;99.90;;;;;;4997060;28;20097;-57
2022/11/16 13:40:30;;;;;;;4.70;0.63;;;14.10;99.90;;;;;;4992735;28;20487;-55
2022/11/16 13:43:08;;;;;;;2.40;1.08;;;14.10;99.90;;;;;;4982252;28;20030;-59
2022/11/16 13:45:33;;;;;;;7.18;1.10;;;14.20;99.90;;;;;;4983071;28;20096;-57